createdAt,value
2023-04-20T00:00:12.053Z,98.60
2023-04-20T00:00:24.145Z,98.80
2023-04-20T00:00:36.334Z,98.70
2023-04-20T00:00:48.435Z,98.70
2023-04-20T00:01:01.428Z,98.70
2023-04-20T00:01:13.656Z,98.60
2023-04-20T00:01:25.631Z,98.70
2023-04-20T00:01:37.858Z,98.70
2023-04-20T00:01:49.768Z,98.60
2023-04-20T00:02:03.150Z,98.70
2023-04-20T00:02:15.715Z,98.70
2023-04-20T00:02:27.822Z,98.80
2023-04-20T00:02:40.130Z,98.80
2023-04-20T00:02:53.302Z,98.80
2023-04-20T00:03:05.345Z,98.70
2023-04-20T00:03:21.451Z,98.70
2023-04-20T00:03:35.540Z,98.60
2023-04-20T00:03:47.659Z,98.60
2023-04-20T00:03:59.989Z,98.80
2023-04-20T00:04:12.120Z,99.00
2023-04-20T00:04:23.951Z,99.10
2023-04-20T00:04:36.701Z,99.10
2023-04-20T00:04:48.665Z,99.10
2023-04-20T00:05:00.627Z,98.90
2023-04-20T00:05:12.859Z,98.90
2023-04-20T00:05:24.945Z,99.00
2023-04-20T00:05:37.883Z,98.90
2023-04-20T00:05:49.900Z,98.90
2023-04-20T00:06:02.148Z,98.90
2023-04-20T00:06:14.156Z,98.90
2023-04-20T00:06:29.828Z,98.90
2023-04-20T00:06:44.023Z,98.90
2023-04-20T00:06:57.221Z,99.10
2023-04-20T00:07:09.298Z,99.10
2023-04-20T00:07:21.660Z,99.10
2023-04-20T00:07:33.738Z,99.10
2023-04-20T00:07:45.681Z,99.20
2023-04-20T00:07:58.778Z,99.10
2023-04-20T00:08:10.721Z,99.10
2023-04-20T00:08:22.620Z,99.00
2023-04-20T00:08:34.549Z,99.00
2023-04-20T00:08:46.620Z,99.00
2023-04-20T00:08:59.002Z,99.10
2023-04-20T00:09:12.673Z,99.10
2023-04-20T00:09:24.563Z,99.10
2023-04-20T00:09:36.407Z,99.10
2023-04-20T00:09:48.285Z,99.20
2023-04-20T00:10:00.460Z,99.10
2023-04-20T00:10:12.515Z,99.20
2023-04-20T00:10:24.486Z,99.20
2023-04-20T00:10:36.311Z,99.20
2023-04-20T00:10:48.200Z,99.20
2023-04-20T00:11:00.033Z,99.10
2023-04-20T00:11:11.855Z,99.20
2023-04-20T00:11:23.807Z,99.20
2023-04-20T00:11:35.729Z,99.20
2023-04-20T00:11:47.577Z,99.10
2023-04-20T00:11:59.375Z,99.10
2023-04-20T00:12:11.288Z,99.10
2023-04-20T00:12:23.346Z,99.10
2023-04-20T00:12:35.800Z,99.10
2023-04-20T00:12:47.662Z,99.10
2023-04-20T00:12:59.663Z,99.10
2023-04-20T00:13:11.653Z,99.10
2023-04-20T00:13:23.613Z,99.10
2023-04-20T00:13:35.547Z,99.00
2023-04-20T00:13:47.607Z,99.00
2023-04-20T00:13:59.417Z,99.00
2023-04-20T00:14:11.235Z,98.90
2023-04-20T00:14:23.117Z,99.00
2023-04-20T00:14:34.979Z,99.10
2023-04-20T00:14:47.042Z,99.00
2023-04-20T00:14:58.868Z,99.00
2023-04-20T00:15:10.941Z,99.00
2023-04-20T00:15:22.852Z,99.00
2023-04-20T00:15:34.673Z,99.10
2023-04-20T00:15:46.633Z,99.10
2023-04-20T00:15:58.489Z,99.10
2023-04-20T00:16:10.725Z,99.00
2023-04-20T00:16:22.888Z,99.10
2023-04-20T00:16:34.787Z,99.10
2023-04-20T00:16:46.808Z,99.00
2023-04-20T00:16:58.780Z,99.00
2023-04-20T00:17:10.997Z,99.00
2023-04-20T00:17:23.042Z,98.90
2023-04-20T00:17:34.940Z,98.90
2023-04-20T00:17:48.753Z,99.00
2023-04-20T00:18:01.145Z,99.00
2023-04-20T00:18:13.260Z,99.00
2023-04-20T00:18:25.046Z,99.00
2023-04-20T00:18:36.933Z,99.10
2023-04-20T00:18:48.994Z,99.10
2023-04-20T00:19:01.163Z,99.00
2023-04-20T00:19:12.970Z,99.00
2023-04-20T00:19:26.324Z,98.90
2023-04-20T00:19:38.310Z,99.10
2023-04-20T00:19:50.203Z,99.00
2023-04-20T00:20:02.181Z,99.00
2023-04-20T00:20:15.432Z,99.10
2023-04-20T00:20:27.867Z,99.20
2023-04-20T00:20:40.270Z,99.20
2023-04-20T00:20:52.096Z,99.20
2023-04-20T00:21:04.105Z,99.10
2023-04-20T00:21:15.985Z,99.10
2023-04-20T00:21:27.862Z,99.00
2023-04-20T00:21:39.807Z,99.10
2023-04-20T00:21:53.047Z,99.10
2023-04-20T00:22:05.235Z,99.00
2023-04-20T00:22:17.206Z,99.00
2023-04-20T00:22:30.921Z,99.00
2023-04-20T00:22:43.281Z,99.00
2023-04-20T00:22:55.274Z,99.00
2023-04-20T00:23:07.347Z,99.10
2023-04-20T00:23:19.185Z,99.00
2023-04-20T00:23:30.990Z,99.00
2023-04-20T00:23:42.899Z,98.90
2023-04-20T00:23:54.696Z,98.90
2023-04-20T00:24:07.260Z,99.10
2023-04-20T00:24:19.386Z,99.20
2023-04-20T00:24:31.482Z,99.10
2023-04-20T00:24:43.433Z,99.10
2023-04-20T00:24:55.381Z,99.20
2023-04-20T00:25:07.702Z,99.20
2023-04-20T00:25:20.828Z,99.20
2023-04-20T00:25:32.845Z,99.20
2023-04-20T00:25:45.050Z,99.20
2023-04-20T00:25:56.911Z,99.10
2023-04-20T00:26:08.785Z,99.10
2023-04-20T00:26:21.452Z,99.10
2023-04-20T00:26:33.957Z,99.10
2023-04-20T00:26:45.959Z,99.10
2023-04-20T00:26:57.869Z,99.00
2023-04-20T00:27:09.668Z,99.00
2023-04-20T00:27:21.567Z,99.10
2023-04-20T00:27:33.754Z,99.10
2023-04-20T00:27:45.708Z,99.00
2023-04-20T00:27:57.771Z,99.00
2023-04-20T00:28:09.775Z,99.10
2023-04-20T00:28:21.638Z,99.00
2023-04-20T00:28:33.588Z,99.00
2023-04-20T00:28:45.626Z,99.10
2023-04-20T00:28:57.590Z,99.10
2023-04-20T00:29:09.425Z,99.20
2023-04-20T00:29:21.256Z,99.10
2023-04-20T00:29:33.376Z,99.10
2023-04-20T00:29:45.196Z,99.10
2023-04-20T00:29:57.002Z,99.10
2023-04-20T00:30:10.443Z,99.00
2023-04-20T00:30:22.636Z,99.10
2023-04-20T00:30:34.495Z,99.10
2023-04-20T00:30:46.444Z,99.10
2023-04-20T00:30:58.487Z,99.20
2023-04-20T00:31:10.533Z,99.20
2023-04-20T00:31:22.477Z,99.20
2023-04-20T00:31:34.305Z,99.20
2023-04-20T00:31:46.228Z,99.20
2023-04-20T00:31:58.163Z,99.30
2023-04-20T00:32:10.043Z,99.30
2023-04-20T00:32:21.863Z,99.20
2023-04-20T00:32:33.789Z,99.20
2023-04-20T00:32:45.977Z,99.30
2023-04-20T00:32:57.888Z,99.20
2023-04-20T00:33:09.737Z,99.10
2023-04-20T00:33:21.622Z,99.10
2023-04-20T00:33:33.486Z,99.10
2023-04-20T00:33:45.339Z,99.20
2023-04-20T00:33:57.219Z,99.20
2023-04-20T00:34:09.051Z,99.20
2023-04-20T00:34:21.348Z,99.20
2023-04-20T00:34:33.222Z,99.10
2023-04-20T00:34:45.306Z,99.20
2023-04-20T00:34:57.152Z,99.20
2023-04-20T00:35:09.432Z,99.20
2023-04-20T00:35:21.535Z,99.20
2023-04-20T00:35:33.402Z,99.30
2023-04-20T00:35:45.553Z,99.30
2023-04-20T00:35:57.421Z,99.30
2023-04-20T00:36:09.579Z,99.30
2023-04-20T00:36:22.011Z,99.20
2023-04-20T00:36:33.979Z,99.30
2023-04-20T00:36:45.749Z,99.20
2023-04-20T00:36:57.934Z,99.20
2023-04-20T00:37:09.811Z,99.30
2023-04-20T00:37:21.626Z,99.20
2023-04-20T00:37:33.492Z,99.20
2023-04-20T00:37:45.700Z,99.30
2023-04-20T00:37:57.525Z,99.30
2023-04-20T00:38:09.361Z,99.30
2023-04-20T00:38:21.198Z,99.30
2023-04-20T00:38:32.959Z,99.30
2023-04-20T00:38:52.582Z,99.50
2023-04-20T00:39:08.794Z,99.50
2023-04-20T00:39:28.847Z,99.40
2023-04-20T00:40:07.633Z,99.40
2023-04-20T00:40:19.713Z,99.30
2023-04-20T00:40:31.567Z,99.30
2023-04-20T00:40:44.972Z,99.30
2023-04-20T00:40:56.758Z,99.30
2023-04-20T00:41:08.752Z,99.40
2023-04-20T00:41:21.400Z,99.40
2023-04-20T00:41:33.232Z,99.40
2023-04-20T00:41:45.161Z,99.30
2023-04-20T00:42:05.239Z,99.30
2023-04-20T00:42:20.959Z,99.30
2023-04-20T00:42:32.918Z,99.30
2023-04-20T00:42:44.892Z,99.30
2023-04-20T00:42:56.734Z,99.30
2023-04-20T00:43:12.149Z,99.30
2023-04-20T00:43:24.147Z,99.20
2023-04-20T00:43:36.149Z,99.20
2023-04-20T00:43:52.488Z,99.30
2023-04-20T00:44:04.443Z,99.30
2023-04-20T00:44:16.236Z,99.40
2023-04-20T00:44:28.083Z,99.30
2023-04-20T00:44:39.877Z,99.40
2023-04-20T00:44:51.687Z,99.30
2023-04-20T00:45:03.988Z,99.40
2023-04-20T00:45:15.872Z,99.50
2023-04-20T00:45:27.705Z,99.60
2023-04-20T00:45:39.496Z,99.60
2023-04-20T00:45:54.450Z,99.60
2023-04-20T00:46:06.875Z,99.50
2023-04-20T00:46:19.738Z,99.50
2023-04-20T00:46:31.643Z,99.50
2023-04-20T00:46:43.599Z,99.50
2023-04-20T00:46:57.366Z,99.50
2023-04-20T00:47:09.254Z,99.50
2023-04-20T00:47:21.085Z,99.80
2023-04-20T00:47:33.071Z,99.50
2023-04-20T00:47:45.020Z,99.50
2023-04-20T00:47:56.907Z,99.40
2023-04-20T00:48:08.908Z,99.50
2023-04-20T00:48:21.690Z,99.50
2023-04-20T00:48:33.944Z,99.60
2023-04-20T00:48:45.860Z,99.60
2023-04-20T00:48:57.717Z,99.70
2023-04-20T00:49:09.691Z,99.80
2023-04-20T00:49:21.585Z,99.70
2023-04-20T00:49:33.406Z,99.80
2023-04-20T00:49:45.261Z,99.80
2023-04-20T00:49:57.063Z,99.80
2023-04-20T00:50:09.396Z,99.80
2023-04-20T00:50:21.302Z,99.70
2023-04-20T00:50:34.229Z,99.80
2023-04-20T00:50:46.150Z,99.80
2023-04-20T00:50:58.141Z,99.80
2023-04-20T00:51:09.905Z,99.80
2023-04-20T00:51:22.481Z,99.80
2023-04-20T00:51:34.777Z,99.70
2023-04-20T00:51:46.618Z,99.70
2023-04-20T00:51:58.818Z,99.70
2023-04-20T00:52:10.602Z,99.70
2023-04-20T00:52:22.462Z,99.60
2023-04-20T00:52:34.518Z,99.60
2023-04-20T00:52:46.371Z,99.70
2023-04-20T00:52:58.227Z,99.80
2023-04-20T00:53:10.173Z,99.70
2023-04-20T00:53:21.975Z,99.80
2023-04-20T00:53:33.829Z,99.80
2023-04-20T00:53:45.861Z,99.90
2023-04-20T00:53:57.716Z,99.90
2023-04-20T00:54:09.628Z,99.90
2023-04-20T00:54:21.532Z,99.90
2023-04-20T00:54:33.452Z,99.80
2023-04-20T00:54:45.262Z,99.90
2023-04-20T00:54:57.365Z,99.80
2023-04-20T00:55:11.584Z,99.80
2023-04-20T00:55:23.397Z,99.90
2023-04-20T00:55:35.981Z,99.90
2023-04-20T00:55:47.841Z,99.90
2023-04-20T00:55:59.692Z,99.90
2023-04-20T00:56:13.108Z,99.90
2023-04-20T00:56:25.074Z,99.90
2023-04-20T00:56:36.948Z,99.90
2023-04-20T00:56:49.117Z,99.90
2023-04-20T00:57:01.375Z,99.90
2023-04-20T00:57:16.742Z,99.90
2023-04-20T00:57:28.575Z,99.90
2023-04-20T00:57:40.449Z,99.90
2023-04-20T00:57:52.913Z,99.90
2023-04-20T00:58:04.939Z,99.90
2023-04-20T00:58:16.750Z,99.90
2023-04-20T00:58:28.541Z,99.90
2023-04-20T00:58:42.224Z,99.90
2023-04-20T00:58:53.984Z,99.90
2023-04-20T00:59:05.960Z,99.90
2023-04-20T00:59:18.045Z,99.90
2023-04-20T00:59:30.091Z,99.90
2023-04-20T00:59:41.941Z,99.90
2023-04-20T00:59:53.933Z,99.90
2023-04-20T01:00:07.388Z,99.90
2023-04-20T01:00:19.296Z,99.90
2023-04-20T01:00:31.960Z,99.90
2023-04-20T01:00:44.446Z,99.90
2023-04-20T01:00:56.423Z,99.90
2023-04-20T01:01:08.947Z,99.90
2023-04-20T01:01:21.043Z,99.90
2023-04-20T01:01:33.030Z,99.90
2023-04-20T01:01:45.175Z,99.90
2023-04-20T01:01:57.727Z,99.90
2023-04-20T01:02:10.163Z,99.90
2023-04-20T01:02:23.284Z,99.90
2023-04-20T01:02:35.451Z,99.90
2023-04-20T01:02:47.703Z,99.90
2023-04-20T01:02:59.988Z,99.90
2023-04-20T01:03:12.067Z,99.90
2023-04-20T01:03:24.150Z,99.90
2023-04-20T01:03:37.035Z,99.90
2023-04-20T01:03:49.309Z,99.90
2023-04-20T01:04:01.312Z,99.90
2023-04-20T01:04:13.411Z,99.90
2023-04-20T01:04:26.319Z,99.90
2023-04-20T01:04:38.635Z,99.90
2023-04-20T01:04:50.507Z,99.90
2023-04-20T01:05:02.496Z,99.90
2023-04-20T01:05:14.380Z,99.90
2023-04-20T01:05:27.021Z,99.90
2023-04-20T01:05:38.873Z,99.90
2023-04-20T01:05:50.710Z,99.90
2023-04-20T01:06:02.668Z,99.90
2023-04-20T01:06:14.758Z,99.90
2023-04-20T01:06:27.985Z,99.90
2023-04-20T01:06:39.812Z,99.90
2023-04-20T01:06:51.848Z,99.90
2023-04-20T01:07:03.787Z,99.90
2023-04-20T01:07:15.831Z,99.90
2023-04-20T01:07:27.781Z,99.90
2023-04-20T01:07:39.615Z,99.90
2023-04-20T01:07:51.727Z,99.90
2023-04-20T01:08:03.660Z,99.90
2023-04-20T01:08:15.505Z,99.90
2023-04-20T01:08:27.691Z,99.90
2023-04-20T01:08:47.128Z,99.90
2023-04-20T01:08:58.918Z,99.90
2023-04-20T01:09:10.872Z,99.90
2023-04-20T01:09:22.956Z,99.90
2023-04-20T01:09:37.305Z,99.90
2023-04-20T01:09:49.065Z,99.90
2023-04-20T01:10:01.050Z,99.90
2023-04-20T01:10:13.007Z,99.90
2023-04-20T01:10:24.894Z,99.90
2023-04-20T01:10:36.924Z,99.90
2023-04-20T01:10:48.808Z,99.90
2023-04-20T01:11:00.623Z,99.90
2023-04-20T01:11:12.444Z,99.90
2023-04-20T01:11:24.249Z,99.90
2023-04-20T01:11:36.504Z,99.90
2023-04-20T01:11:48.624Z,99.90
2023-04-20T01:12:01.628Z,99.90
2023-04-20T01:12:13.506Z,99.90
2023-04-20T01:12:25.770Z,99.90
2023-04-20T01:12:37.651Z,99.90
2023-04-20T01:12:49.544Z,99.90
2023-04-20T01:13:01.550Z,99.90
2023-04-20T01:13:13.355Z,99.90
2023-04-20T01:13:25.215Z,99.90
2023-04-20T01:13:38.663Z,99.90
2023-04-20T01:13:50.537Z,99.90
2023-04-20T01:14:02.546Z,99.90
2023-04-20T01:14:14.431Z,99.90
2023-04-20T01:14:26.738Z,99.90
2023-04-20T01:14:38.620Z,99.90
2023-04-20T01:14:50.657Z,99.90
2023-04-20T01:15:03.651Z,99.90
2023-04-20T01:15:15.817Z,99.90
2023-04-20T01:15:27.698Z,99.90
2023-04-20T01:15:39.568Z,99.90
2023-04-20T01:15:51.471Z,99.90
2023-04-20T01:16:03.998Z,99.90
2023-04-20T01:16:16.263Z,99.90
2023-04-20T01:16:28.280Z,99.90
2023-04-20T01:16:40.316Z,99.90
2023-04-20T01:16:52.129Z,99.90
2023-04-20T01:17:04.702Z,99.90
2023-04-20T01:17:17.896Z,99.90
2023-04-20T01:17:29.895Z,99.90
2023-04-20T01:17:42.185Z,99.90
2023-04-20T01:17:54.086Z,99.90
2023-04-20T01:18:06.144Z,99.90
2023-04-20T01:18:20.109Z,99.90
2023-04-20T01:18:44.934Z,99.90
2023-04-20T01:18:57.354Z,99.90
2023-04-20T01:19:09.195Z,99.90
2023-04-20T01:19:21.764Z,99.90
2023-04-20T01:19:33.818Z,99.90
2023-04-20T01:19:46.194Z,99.90
2023-04-20T01:20:00.192Z,99.90
2023-04-20T01:20:15.180Z,99.90
2023-04-20T01:20:27.128Z,99.90
2023-04-20T01:20:39.110Z,99.90
2023-04-20T01:20:50.986Z,99.90
2023-04-20T01:21:02.818Z,99.90
2023-04-20T01:21:16.440Z,99.90
2023-04-20T01:21:28.376Z,99.90
2023-04-20T01:21:41.008Z,99.90
2023-04-20T01:21:52.908Z,99.90
2023-04-20T01:22:04.787Z,99.90
2023-04-20T01:22:20.044Z,99.90
2023-04-20T01:22:31.948Z,99.90
2023-04-20T01:22:47.754Z,99.90
2023-04-20T01:22:59.525Z,99.90
2023-04-20T01:23:11.917Z,99.90
2023-04-20T01:23:23.903Z,99.90
2023-04-20T01:23:35.873Z,99.90
2023-04-20T01:23:48.171Z,99.90
2023-04-20T01:23:59.951Z,99.90
2023-04-20T01:24:11.780Z,99.90
2023-04-20T01:24:23.720Z,99.90
2023-04-20T01:24:35.684Z,99.90
2023-04-20T01:24:48.191Z,99.90
2023-04-20T01:25:00.260Z,99.90
2023-04-20T01:25:12.102Z,99.90
2023-04-20T01:25:24.057Z,99.90
2023-04-20T01:25:36.302Z,99.90
2023-04-20T01:25:48.530Z,99.90
2023-04-20T01:26:00.480Z,99.90
2023-04-20T01:26:14.374Z,99.90
2023-04-20T01:26:26.801Z,99.90
2023-04-20T01:26:38.629Z,99.90
2023-04-20T01:26:50.511Z,99.90
2023-04-20T01:27:02.702Z,99.90
2023-04-20T01:27:16.622Z,99.90
2023-04-20T01:27:28.546Z,99.90
2023-04-20T01:27:40.713Z,99.90
2023-04-20T01:27:52.695Z,99.90
2023-04-20T01:28:05.195Z,99.90
2023-04-20T01:28:17.516Z,99.90
2023-04-20T01:28:29.452Z,99.90
2023-04-20T01:28:41.304Z,99.90
2023-04-20T01:28:53.317Z,99.90
2023-04-20T01:29:05.185Z,99.90
2023-04-20T01:29:17.313Z,99.90
2023-04-20T01:29:30.210Z,99.90
2023-04-20T01:29:42.345Z,99.90
2023-04-20T01:29:54.368Z,99.90
2023-04-20T01:30:06.952Z,99.90
2023-04-20T01:30:19.178Z,99.90
2023-04-20T01:30:31.460Z,99.90
2023-04-20T01:30:43.513Z,99.90
2023-04-20T01:30:55.358Z,99.90
2023-04-20T01:31:07.544Z,99.90
2023-04-20T01:31:19.460Z,99.90
2023-04-20T01:31:31.773Z,99.90
2023-04-20T01:31:43.727Z,99.90
2023-04-20T01:31:55.897Z,99.90
2023-04-20T01:32:08.184Z,99.90
2023-04-20T01:32:20.259Z,99.90
2023-04-20T01:32:32.348Z,99.90
2023-04-20T01:32:44.614Z,99.90
2023-04-20T01:32:56.907Z,99.90
2023-04-20T01:33:08.939Z,99.90
2023-04-20T01:33:20.971Z,99.90
2023-04-20T01:33:33.398Z,99.90
2023-04-20T01:33:45.477Z,99.90
2023-04-20T01:33:57.344Z,99.90
2023-04-20T01:34:09.333Z,99.90
2023-04-20T01:34:21.816Z,99.90
2023-04-20T01:34:33.681Z,99.90
2023-04-20T01:34:45.502Z,99.90
2023-04-20T01:34:57.350Z,99.90
2023-04-20T01:35:09.861Z,99.90
2023-04-20T01:35:21.805Z,99.90
2023-04-20T01:35:33.703Z,99.90
2023-04-20T01:35:45.480Z,99.90
2023-04-20T01:35:57.318Z,99.90
2023-04-20T01:36:09.470Z,99.90
2023-04-20T01:36:21.489Z,99.90
2023-04-20T01:36:33.945Z,99.90
2023-04-20T01:36:45.926Z,99.90
2023-04-20T01:36:57.898Z,99.90
2023-04-20T01:37:09.882Z,99.90
2023-04-20T01:37:21.786Z,99.90
2023-04-20T01:37:33.885Z,99.90
2023-04-20T01:37:45.919Z,99.90
2023-04-20T01:37:57.774Z,99.90
2023-04-20T01:38:09.961Z,99.90
2023-04-20T01:38:22.314Z,99.90
2023-04-20T01:38:34.914Z,99.90
2023-04-20T01:38:47.858Z,99.90
2023-04-20T01:39:00.185Z,99.90
2023-04-20T01:39:12.111Z,99.90
2023-04-20T01:39:23.984Z,99.90
2023-04-20T01:39:37.095Z,99.90
2023-04-20T01:39:48.958Z,99.90
2023-04-20T01:40:00.982Z,99.90
2023-04-20T01:40:13.392Z,99.90
2023-04-20T01:40:25.165Z,99.90
2023-04-20T01:40:37.040Z,99.90
2023-04-20T01:40:49.101Z,99.90
2023-04-20T01:41:02.076Z,99.90
2023-04-20T01:41:14.445Z,99.90
2023-04-20T01:41:27.089Z,99.90
2023-04-20T01:41:39.498Z,99.90
2023-04-20T01:41:51.624Z,99.90
2023-04-20T01:42:03.752Z,99.90
2023-04-20T01:42:15.682Z,99.90
2023-04-20T01:42:27.512Z,99.90
2023-04-20T01:42:39.316Z,99.90
2023-04-20T01:42:51.213Z,99.90
2023-04-20T01:43:03.157Z,99.90
2023-04-20T01:43:15.455Z,99.90
2023-04-20T01:43:27.348Z,99.90
2023-04-20T01:43:39.492Z,99.90
2023-04-20T01:43:51.377Z,99.90
2023-04-20T01:44:03.148Z,99.90
2023-04-20T01:44:15.008Z,99.90
2023-04-20T01:44:26.961Z,99.90
2023-04-20T01:44:39.266Z,99.90
2023-04-20T01:44:51.134Z,99.90
2023-04-20T01:45:04.337Z,99.90
2023-04-20T01:45:16.456Z,99.90
2023-04-20T01:45:28.232Z,99.90
2023-04-20T01:45:40.059Z,99.90
2023-04-20T01:45:51.907Z,99.90
2023-04-20T01:46:04.098Z,99.90
2023-04-20T01:46:16.007Z,99.90
2023-04-20T01:46:27.808Z,99.90
2023-04-20T01:46:40.222Z,99.90
2023-04-20T01:46:52.093Z,99.90
2023-04-20T01:47:04.170Z,99.90
2023-04-20T01:47:16.084Z,99.90
2023-04-20T01:47:29.198Z,99.90
2023-04-20T01:47:41.106Z,99.90
2023-04-20T01:47:53.038Z,99.90
2023-04-20T01:48:05.141Z,99.90
2023-04-20T01:48:17.051Z,99.90
2023-04-20T01:48:29.100Z,99.90
2023-04-20T01:48:41.005Z,99.90
2023-04-20T01:48:52.942Z,99.90
2023-04-20T01:49:05.152Z,99.90
2023-04-20T01:49:17.120Z,99.90
2023-04-20T01:49:29.133Z,99.90
2023-04-20T01:49:41.115Z,99.90
2023-04-20T01:49:52.964Z,99.90
2023-04-20T01:50:05.048Z,99.90
2023-04-20T01:50:17.004Z,99.90
2023-04-20T01:50:28.915Z,99.90
2023-04-20T01:50:40.991Z,99.90
2023-04-20T01:50:53.044Z,99.90
2023-04-20T01:51:05.134Z,99.90
2023-04-20T01:51:16.951Z,99.90
2023-04-20T01:51:29.523Z,99.90
2023-04-20T01:51:41.538Z,99.90
2023-04-20T01:51:53.502Z,99.90
2023-04-20T01:52:05.655Z,99.90
2023-04-20T01:52:17.474Z,99.90
2023-04-20T01:52:29.339Z,99.90
2023-04-20T01:52:41.230Z,99.90
2023-04-20T01:52:53.226Z,99.90
2023-04-20T01:53:05.281Z,99.90
2023-04-20T01:53:17.276Z,99.90
2023-04-20T01:53:29.356Z,99.90
2023-04-20T01:53:41.182Z,99.90
2023-04-20T01:53:53.043Z,99.90
2023-04-20T01:54:04.889Z,99.90
2023-04-20T01:54:16.846Z,99.90
2023-04-20T01:54:28.841Z,99.90
2023-04-20T01:54:40.767Z,99.90
2023-04-20T01:54:52.719Z,99.90
2023-04-20T01:55:05.102Z,99.90
2023-04-20T01:55:28.941Z,99.90
2023-04-20T01:55:41.265Z,99.90
2023-04-20T01:55:53.137Z,99.90
2023-04-20T01:56:05.181Z,99.90
2023-04-20T01:56:17.075Z,99.90
2023-04-20T01:56:28.878Z,99.90
2023-04-20T01:56:40.767Z,99.90
2023-04-20T01:56:52.578Z,99.90
2023-04-20T01:57:04.491Z,99.90
2023-04-20T01:57:16.630Z,99.90
2023-04-20T01:57:28.396Z,99.90
2023-04-20T01:57:40.397Z,99.90
2023-04-20T01:57:52.324Z,99.90
2023-04-20T01:58:04.218Z,99.90
2023-04-20T01:58:16.112Z,99.90
2023-04-20T01:58:28.068Z,99.90
2023-04-20T01:58:39.880Z,99.90
2023-04-20T01:58:51.741Z,99.90
2023-04-20T01:59:03.628Z,99.90
2023-04-20T01:59:16.170Z,99.90
2023-04-20T01:59:28.199Z,99.90
2023-04-20T01:59:40.633Z,99.90
2023-04-20T01:59:52.527Z,99.90
2023-04-20T02:00:04.892Z,99.90
2023-04-20T02:00:17.015Z,99.90
2023-04-20T02:00:29.146Z,99.90
2023-04-20T02:00:41.093Z,99.90
2023-04-20T02:00:53.012Z,99.90
2023-04-20T02:01:05.121Z,99.90
2023-04-20T02:01:17.272Z,99.90
2023-04-20T02:01:29.215Z,99.90
2023-04-20T02:01:41.426Z,99.90
2023-04-20T02:01:53.504Z,99.90
2023-04-20T02:02:05.412Z,99.90
2023-04-20T02:02:17.514Z,99.90
2023-04-20T02:02:29.658Z,99.90
2023-04-20T02:02:41.962Z,99.90
2023-04-20T02:02:54.037Z,99.90
2023-04-20T02:03:06.722Z,99.90
2023-04-20T02:03:18.861Z,99.90
2023-04-20T02:03:31.362Z,99.90
2023-04-20T02:03:43.548Z,99.90
2023-04-20T02:03:55.765Z,99.90
2023-04-20T02:04:07.782Z,99.90
2023-04-20T02:04:20.714Z,99.90
2023-04-20T02:04:32.710Z,99.90
2023-04-20T02:04:44.762Z,99.90
2023-04-20T02:04:56.650Z,99.90
2023-04-20T02:05:09.040Z,99.90
2023-04-20T02:05:21.326Z,99.90
2023-04-20T02:05:33.278Z,99.90
2023-04-20T02:05:45.266Z,99.90
2023-04-20T02:05:57.240Z,99.90
2023-04-20T02:06:09.070Z,99.90
2023-04-20T02:06:20.919Z,99.90
2023-04-20T02:06:33.329Z,99.90
2023-04-20T02:06:45.481Z,99.90
2023-04-20T02:06:57.543Z,99.90
2023-04-20T02:07:09.419Z,99.90
2023-04-20T02:07:21.556Z,99.90
2023-04-20T02:07:33.507Z,99.90
2023-04-20T02:07:45.805Z,99.90
2023-04-20T02:07:57.951Z,99.90
2023-04-20T02:08:09.986Z,99.90
2023-04-20T02:08:22.182Z,99.90
2023-04-20T02:08:33.960Z,99.90
2023-04-20T02:08:46.047Z,99.90
2023-04-20T02:08:57.969Z,99.90
2023-04-20T02:09:09.960Z,99.90
2023-04-20T02:09:21.788Z,99.90
2023-04-20T02:09:33.659Z,99.90
2023-04-20T02:09:45.717Z,99.90
2023-04-20T02:09:57.717Z,99.90
2023-04-20T02:10:10.114Z,99.90
2023-04-20T02:10:22.062Z,99.90
2023-04-20T02:10:34.023Z,99.90
2023-04-20T02:10:46.090Z,99.90
2023-04-20T02:10:57.961Z,99.90
2023-04-20T02:11:09.800Z,99.90
2023-04-20T02:11:22.841Z,99.90
2023-04-20T02:11:34.813Z,99.90
2023-04-20T02:11:46.616Z,99.90
2023-04-20T02:11:58.447Z,99.90
2023-04-20T02:12:10.348Z,99.90
2023-04-20T02:12:22.182Z,99.90
2023-04-20T02:12:34.012Z,99.90
2023-04-20T02:12:46.195Z,99.90
2023-04-20T02:12:58.074Z,99.90
2023-04-20T02:13:10.121Z,99.90
2023-04-20T02:13:21.990Z,99.90
2023-04-20T02:13:34.004Z,99.90
2023-04-20T02:13:45.983Z,99.90
2023-04-20T02:13:58.054Z,99.90
2023-04-20T02:14:10.118Z,99.90
2023-04-20T02:14:22.120Z,99.90
2023-04-20T02:14:34.368Z,99.90
2023-04-20T02:14:46.166Z,99.90
2023-04-20T02:14:57.993Z,99.90
2023-04-20T02:15:10.395Z,99.90
2023-04-20T02:15:22.354Z,99.90
2023-04-20T02:15:34.176Z,99.90
2023-04-20T02:15:45.981Z,99.90
2023-04-20T02:15:57.777Z,99.90
2023-04-20T02:16:09.702Z,99.90
2023-04-20T02:16:23.549Z,99.90
2023-04-20T02:16:35.626Z,99.90
2023-04-20T02:16:47.739Z,99.90
2023-04-20T02:17:01.027Z,99.90
2023-04-20T02:17:13.994Z,99.90
2023-04-20T02:17:26.336Z,99.90
2023-04-20T02:17:38.189Z,99.90
2023-04-20T02:17:52.549Z,99.90
2023-04-20T02:18:04.907Z,99.90
2023-04-20T02:18:16.788Z,99.90
2023-04-20T02:18:30.526Z,99.90
2023-04-20T02:18:43.042Z,99.90
2023-04-20T02:18:55.547Z,99.90
2023-04-20T02:19:07.380Z,99.90
2023-04-20T02:19:19.557Z,99.90
2023-04-20T02:19:31.721Z,99.90
2023-04-20T02:19:43.781Z,99.90
2023-04-20T02:19:55.765Z,99.90
2023-04-20T02:20:09.423Z,99.90
2023-04-20T02:20:21.280Z,99.90
2023-04-20T02:20:33.158Z,99.90
2023-04-20T02:20:45.441Z,99.90
2023-04-20T02:20:57.748Z,99.90
2023-04-20T02:21:09.581Z,99.90
2023-04-20T02:21:21.560Z,99.90
2023-04-20T02:21:33.435Z,99.90
2023-04-20T02:21:45.282Z,99.90
2023-04-20T02:21:57.097Z,99.90
2023-04-20T02:22:10.977Z,99.90
2023-04-20T02:22:22.828Z,99.90
2023-04-20T02:22:35.231Z,99.90
2023-04-20T02:22:47.103Z,99.90
2023-04-20T02:22:59.028Z,99.90
2023-04-20T02:23:11.210Z,99.90
2023-04-20T02:23:23.058Z,99.90
2023-04-20T02:23:35.268Z,99.90
2023-04-20T02:23:47.055Z,99.90
2023-04-20T02:23:58.862Z,99.90
2023-04-20T02:24:10.756Z,99.90
2023-04-20T02:24:22.568Z,99.90
2023-04-20T02:24:34.416Z,99.90
2023-04-20T02:24:46.253Z,99.90
2023-04-20T02:24:58.128Z,99.90
2023-04-20T02:25:10.542Z,99.90
2023-04-20T02:25:22.356Z,99.90
2023-04-20T02:25:34.205Z,99.90
2023-04-20T02:25:46.063Z,99.90
2023-04-20T02:25:57.874Z,99.90
2023-04-20T02:26:09.650Z,99.90
2023-04-20T02:26:21.370Z,99.90
2023-04-20T02:26:33.177Z,99.90
2023-04-20T02:26:44.991Z,99.90
2023-04-20T02:26:57.250Z,99.90
2023-04-20T02:27:09.629Z,99.90
2023-04-20T02:27:21.576Z,99.90
2023-04-20T02:27:33.348Z,99.90
2023-04-20T02:27:45.164Z,99.90
2023-04-20T02:27:57.136Z,99.90
2023-04-20T02:28:08.959Z,99.90
2023-04-20T02:28:22.380Z,99.90
2023-04-20T02:28:34.413Z,99.90
2023-04-20T02:28:46.735Z,99.90
2023-04-20T02:28:58.553Z,99.90
2023-04-20T02:29:10.415Z,99.90
2023-04-20T02:29:22.294Z,99.90
2023-04-20T02:29:34.293Z,99.90
2023-04-20T02:29:46.311Z,99.90
2023-04-20T02:29:58.622Z,99.90
2023-04-20T02:30:10.907Z,99.90
2023-04-20T02:30:22.791Z,99.90
2023-04-20T02:30:34.555Z,99.90
2023-04-20T02:30:46.366Z,99.90
2023-04-20T02:30:58.214Z,99.90
2023-04-20T02:31:10.120Z,99.90
2023-04-20T02:31:22.026Z,99.90
2023-04-20T02:31:34.405Z,99.90
2023-04-20T02:31:47.036Z,99.90
2023-04-20T02:31:59.081Z,99.90
2023-04-20T02:32:10.839Z,99.90
2023-04-20T02:32:22.731Z,99.90
2023-04-20T02:32:35.406Z,99.90
2023-04-20T02:32:47.407Z,99.90
2023-04-20T02:32:59.590Z,99.90
2023-04-20T02:33:11.578Z,99.90
2023-04-20T02:33:23.697Z,99.90
2023-04-20T02:33:35.473Z,99.90
2023-04-20T02:33:47.931Z,99.90
2023-04-20T02:33:59.830Z,99.90
2023-04-20T02:34:11.636Z,99.90
2023-04-20T02:34:24.425Z,99.90
2023-04-20T02:34:36.268Z,99.90
2023-04-20T02:34:48.053Z,99.90
2023-04-20T02:34:59.888Z,99.90
2023-04-20T02:35:12.592Z,99.90
2023-04-20T02:35:24.618Z,99.90
2023-04-20T02:35:36.520Z,99.90
2023-04-20T02:35:48.545Z,99.90
2023-04-20T02:36:00.988Z,99.90
2023-04-20T02:36:13.050Z,99.90
2023-04-20T02:36:25.029Z,99.90
2023-04-20T02:36:36.903Z,99.90
2023-04-20T02:36:48.994Z,99.90
2023-04-20T02:37:00.932Z,99.90
2023-04-20T02:37:12.876Z,99.90
2023-04-20T02:37:24.801Z,99.90
2023-04-20T02:37:36.634Z,99.90
2023-04-20T02:37:48.566Z,99.90
2023-04-20T02:38:00.339Z,99.90
2023-04-20T02:38:12.224Z,99.90